Strona główna
METAR-TAF:

METAR-TAF

Lotnisko :

Schaffen

Diest, Belgia

Szerokość geograficzna: 51-00N, Długość geograficzna: 005-04E, wysokość: 30 m

Aktualna obserwacja pogody

Raport powstał 20 minut temu, godzina 13:25 UTC
Wiatr 6 kt od północ
Temperatura 24°C
Wilgotność 44%
Ciśnienie 1015 hPa
Widzialność 10 km lub więcej

METAR: EBDT 171325Z AUTO 36006KT 9999 FEW100/// BKN210/// 24/11 Q1015 BLU

czas: 15:45 (13:45 UTC)

Prognoza

Raport powstał 5 godziny i 4 minut temu, godzina 08:41 UTC
Prognoza ważna od 17 godzina 10 UTC do 17 godzina 19 UTC
Wiatr 3 kt z kierunków zmiennych
Widzialność 10 km lub więcej
Mało chmury na wysokości 2700 ft
Rozproszone chmury na wysokości 20000 ft
Stopniowe zmiany
od 17 godzina 10 UTC do 17 godzina 12 UTC
Wiatr 5 kt od północ
Mało chmury na wysokości 3500 ft
Rozproszone chmury na wysokości 6000 ft

TAF: EBDT 170841Z 1710/1719 VRB03KT 9999 FEW027 SCT200 BECMG 1710/1712 36005KT FEW035 SCT060

Obserwacja i prognoza pogody dla ponad 4000 lotnisk (raport METAR i TAF).

Dostępne stacje oznaczono żółtymi i czerwonymi punktami na mapie.

Najedź kursorem aby zobaczyć nazwę stacji.

Kliknij aby zobaczyć obserwacje i prognozy pogody.

Aby zmienić mapę: kliknij na zielony przycisk z czarnym krzyżykiem, aby powiększyć; na zielony przycisk z myślnikiem, aby pomniejszyć; na zielone strzałki, aby przejść do map sąsiednich.


METAR-TAF: